createdAt,value
2019-01-27T17:21:39.213Z,25.10
2019-01-27T17:26:42.483Z,23.20
2019-01-27T17:31:45.448Z,23.43
2019-01-27T17:36:49.898Z,26.30
2019-01-27T17:41:54.462Z,25.30
2019-01-27T17:46:57.789Z,24.97
2019-01-27T17:52:00.652Z,27.63
2019-01-27T17:57:16.743Z,16.00
2019-01-27T18:02:40.090Z,11.60
2019-01-27T18:08:03.075Z,21.97
2019-01-27T18:13:10.326Z,21.53
2019-01-27T18:18:14.918Z,22.63
2019-01-27T18:23:18.057Z,23.43
2019-01-27T18:28:21.698Z,24.77
2019-01-27T18:33:27.554Z,22.07
2019-01-27T18:38:31.621Z,23.90
2019-01-27T18:43:36.682Z,24.63
2019-01-27T18:48:42.029Z,28.33
2019-01-27T18:54:18.541Z,25.37
2019-01-27T18:59:43.163Z,23.13
2019-01-27T19:05:21.210Z,27.13
2019-01-27T19:10:37.260Z,22.07
2019-01-27T19:16:23.133Z,27.40
2019-01-27T19:21:47.742Z,23.97
2019-01-27T19:27:12.316Z,25.40
2019-01-27T19:32:40.232Z,24.73
2019-01-27T19:38:11.477Z,21.47
2019-01-27T19:43:34.842Z,20.17
2019-01-27T19:48:59.999Z,17.10
2019-01-27T19:54:41.226Z,18.83
2019-01-27T20:00:16.810Z,14.33
2019-01-27T20:05:44.113Z,13.13
2019-01-27T20:11:29.119Z,10.90
2019-01-27T20:16:59.918Z,13.37
2019-01-27T20:22:19.853Z,12.67
2019-01-27T20:27:35.303Z,12.47
2019-01-27T20:33:05.124Z,10.50
2019-01-27T20:38:38.325Z,9.53
2019-01-27T20:43:51.373Z,10.80
2019-01-27T20:49:27.021Z,11.80
2019-01-27T20:54:53.588Z,9.73
2019-01-27T21:00:22.722Z,8.83
2019-01-27T21:05:43.965Z,8.73
2019-01-27T21:11:12.182Z,8.07
2019-01-27T21:16:39.722Z,7.67
2019-01-27T21:21:45.049Z,8.47
2019-01-27T21:26:50.353Z,7.97
2019-01-27T21:31:55.150Z,7.40
2019-01-27T21:36:58.996Z,10.23
2019-01-27T21:42:03.650Z,10.10
2019-01-27T21:47:06.331Z,9.50
2019-01-27T21:52:09.848Z,8.60
2019-01-27T21:57:12.216Z,7.20
2019-01-27T22:02:14.727Z,10.80
2019-01-27T22:07:17.125Z,9.97
2019-01-27T22:12:19.954Z,9.30
2019-01-27T22:17:22.314Z,9.10
2019-01-27T22:22:25.106Z,10.53
2019-01-27T22:27:27.807Z,9.13
2019-01-27T22:32:30.827Z,11.20
2019-01-27T22:37:33.508Z,12.97
2019-01-27T22:42:35.793Z,10.03
2019-01-27T22:47:38.595Z,8.50
2019-01-27T22:52:41.025Z,9.83
2019-01-27T22:57:43.582Z,8.70
2019-01-27T23:02:46.067Z,7.67
2019-01-27T23:07:48.918Z,7.67
2019-01-27T23:12:51.676Z,8.97
2019-01-27T23:17:54.598Z,7.47
2019-01-27T23:22:57.189Z,7.43
2019-01-27T23:27:59.873Z,7.00
2019-01-27T23:33:02.375Z,7.17
2019-01-27T23:38:04.520Z,6.30
2019-01-27T23:43:08.071Z,5.67
2019-01-27T23:48:11.060Z,5.70
2019-01-27T23:53:14.180Z,7.20
2019-01-27T23:58:20.322Z,7.80
